sensor_id;sensor_type;location;lat;lon;timestamp;pressure;altitude;pressure_sealevel;temperature;humidity
64343;BME280;50675;53.530;-6.312;2023-01-06T08:23:38;100205.50;;;7.34;71.84
64343;BME280;50675;53.530;-6.312;2023-01-06T08:26:15;100201.84;;;7.40;71.87
64343;BME280;50675;53.530;-6.312;2023-01-06T08:28:42;100200.00;;;7.40;71.52
64343;BME280;50675;53.530;-6.312;2023-01-06T08:31:14;100198.97;;;7.30;71.88
64343;BME280;50675;53.530;-6.312;2023-01-06T08:33:40;100187.28;;;7.36;71.95
64343;BME280;50675;53.530;-6.312;2023-01-06T08:36:28;100205.38;;;7.40;71.77
64343;BME280;50675;53.530;-6.312;2023-01-06T08:39:11;100212.16;;;7.31;71.54
64343;BME280;50675;53.530;-6.312;2023-01-06T08:41:37;100202.56;;;7.35;71.88
64343;BME280;50675;53.530;-6.312;2023-01-06T08:44:03;100202.41;;;7.42;71.91
64343;BME280;50675;53.530;-6.312;2023-01-06T08:46:31;100205.09;;;7.42;71.57
64343;BME280;50675;53.530;-6.312;2023-01-06T08:48:58;100210.97;;;7.39;71.90
64343;BME280;50675;53.530;-6.312;2023-01-06T08:51:27;100204.53;;;7.40;71.45
64343;BME280;50675;53.530;-6.312;2023-01-06T08:53:53;100222.75;;;7.38;71.77
64343;BME280;50675;53.530;-6.312;2023-01-06T08:56:27;100218.44;;;7.37;71.61
64343;BME280;50675;53.530;-6.312;2023-01-06T08:58:56;100214.25;;;7.41;71.72
64343;BME280;50675;53.530;-6.312;2023-01-06T09:01:24;100212.00;;;7.38;71.53
64343;BME280;50675;53.530;-6.312;2023-01-06T09:03:52;100215.97;;;7.47;71.41
64343;BME280;50675;53.530;-6.312;2023-01-06T09:06:19;100210.75;;;7.40;71.44
64343;BME280;50675;53.530;-6.312;2023-01-06T09:08:46;100203.00;;;7.44;71.55
64343;BME280;50675;53.530;-6.312;2023-01-06T09:11:14;100206.66;;;7.38;71.44
64343;BME280;50675;53.530;-6.312;2023-01-06T09:13:41;100209.19;;;7.44;71.67
64343;BME280;50675;53.530;-6.312;2023-01-06T09:16:09;100198.34;;;7.39;71.48
64343;BME280;50675;53.530;-6.312;2023-01-06T09:18:36;100198.13;;;7.41;71.64
64343;BME280;50675;53.530;-6.312;2023-01-06T09:21:02;100189.34;;;7.45;71.55
64343;BME280;50675;53.530;-6.312;2023-01-06T09:23:29;100190.94;;;7.46;71.73
64343;BME280;50675;53.530;-6.312;2023-01-06T09:25:55;100190.94;;;7.46;71.33
64343;BME280;50675;53.530;-6.312;2023-01-06T09:28:22;100189.56;;;7.44;71.89
64343;BME280;50675;53.530;-6.312;2023-01-06T09:30:49;100182.34;;;7.44;71.53
64343;BME280;50675;53.530;-6.312;2023-01-06T09:33:15;100181.22;;;7.57;71.78
64343;BME280;50675;53.530;-6.312;2023-01-06T09:35:45;100168.22;;;7.66;71.59
64343;BME280;50675;53.530;-6.312;2023-01-06T09:38:12;100167.47;;;7.70;71.87
64343;BME280;50675;53.530;-6.312;2023-01-06T09:45:56;100154.31;;;7.85;71.60
64343;BME280;50675;53.530;-6.312;2023-01-06T09:49:00;100171.22;;;7.98;71.85
64343;BME280;50675;53.530;-6.312;2023-01-06T09:51:30;100163.56;;;8.06;71.82
64343;BME280;50675;53.530;-6.312;2023-01-06T09:54:04;100162.50;;;8.07;72.03
64343;BME280;50675;53.530;-6.312;2023-01-06T09:56:35;100161.38;;;8.20;72.16
64343;BME280;50675;53.530;-6.312;2023-01-06T09:59:06;100163.09;;;8.26;72.17
64343;BME280;50675;53.530;-6.312;2023-01-06T10:01:45;100136.72;;;8.28;72.20
64343;BME280;50675;53.530;-6.312;2023-01-06T10:04:26;100130.53;;;8.27;72.21
64343;BME280;50675;53.530;-6.312;2023-01-06T10:09:40;100136.09;;;8.54;72.12
64343;BME280;50675;53.530;-6.312;2023-01-06T10:23:15;100128.72;;;8.66;72.08
64343;BME280;50675;53.530;-6.312;2023-01-06T10:28:45;100132.88;;;8.74;72.38
64343;BME280;50675;53.530;-6.312;2023-01-06T10:35:12;100104.81;;;8.92;72.59
64343;BME280;50675;53.530;-6.312;2023-01-06T10:37:46;100111.03;;;8.92;72.48
64343;BME280;50675;53.530;-6.312;2023-01-06T10:40:28;100119.47;;;9.01;72.53
64343;BME280;50675;53.530;-6.312;2023-01-06T10:42:59;100119.03;;;9.09;72.32
64343;BME280;50675;53.530;-6.312;2023-01-06T10:45:37;100112.66;;;9.15;72.46
64343;BME280;50675;53.530;-6.312;2023-01-06T10:48:15;100116.03;;;9.05;72.54
64343;BME280;50675;53.530;-6.312;2023-01-06T10:50:41;100107.00;;;9.16;72.64
64343;BME280;50675;53.530;-6.312;2023-01-06T10:53:12;100113.16;;;9.12;72.38
64343;BME280;50675;53.530;-6.312;2023-01-06T10:55:53;100109.50;;;9.23;72.69
64343;BME280;50675;53.530;-6.312;2023-01-06T10:58:44;100115.25;;;9.32;72.69
64343;BME280;50675;53.530;-6.312;2023-01-06T11:01:13;100095.25;;;9.28;72.05
64343;BME280;50675;53.530;-6.312;2023-01-06T11:03:45;100105.81;;;9.29;72.56
64343;BME280;50675;53.530;-6.312;2023-01-06T11:08:48;100105.41;;;9.42;72.62
64343;BME280;50675;53.530;-6.312;2023-01-06T11:11:16;100104.34;;;9.43;72.39
64343;BME280;50675;53.530;-6.312;2023-01-06T11:13:48;100113.84;;;9.51;72.64
64343;BME280;50675;53.530;-6.312;2023-01-06T11:16:21;100119.75;;;9.48;72.67
64343;BME280;50675;53.530;-6.312;2023-01-06T11:18:54;100116.47;;;9.46;72.80
64343;BME280;50675;53.530;-6.312;2023-01-06T11:21:37;100118.31;;;9.67;72.74
64343;BME280;50675;53.530;-6.312;2023-01-06T11:24:18;100112.69;;;9.69;72.81
64343;BME280;50675;53.530;-6.312;2023-01-06T11:29:55;100099.66;;;9.60;72.78
64343;BME280;50675;53.530;-6.312;2023-01-06T11:32:26;100100.78;;;9.64;72.69
64343;BME280;50675;53.530;-6.312;2023-01-06T11:34:59;100091.69;;;9.76;72.76
64343;BME280;50675;53.530;-6.312;2023-01-06T11:37:38;100079.31;;;9.80;73.09
64343;BME280;50675;53.530;-6.312;2023-01-06T11:40:26;100075.66;;;9.91;72.88
64343;BME280;50675;53.530;-6.312;2023-01-06T11:42:57;100077.56;;;9.95;72.90
64343;BME280;50675;53.530;-6.312;2023-01-06T11:45:48;100057.84;;;9.90;72.96
64343;BME280;50675;53.530;-6.312;2023-01-06T11:48:18;100066.81;;;10.00;73.15
64343;BME280;50675;53.530;-6.312;2023-01-06T11:51:07;100060.03;;;9.98;72.86
64343;BME280;50675;53.530;-6.312;2023-01-06T11:53:34;100033.88;;;9.98;73.07
64343;BME280;50675;53.530;-6.312;2023-01-06T11:56:06;100047.56;;;9.87;73.10
64343;BME280;50675;53.530;-6.312;2023-01-06T12:04:26;100039.38;;;10.14;73.05
64343;BME280;50675;53.530;-6.312;2023-01-06T12:06:59;100019.59;;;10.03;72.94
64343;BME280;50675;53.530;-6.312;2023-01-06T14:32:06;99694.22;;;10.98;73.55
64343;BME280;50675;53.530;-6.312;2023-01-06T14:34:35;99685.28;;;11.03;73.53
64343;BME280;50675;53.530;-6.312;2023-01-06T14:37:04;99678.78;;;11.04;73.59
64343;BME280;50675;53.530;-6.312;2023-01-06T14:39:34;99663.97;;;10.96;73.69
64343;BME280;50675;53.530;-6.312;2023-01-06T14:42:02;99659.63;;;11.05;73.56
64343;BME280;50675;53.530;-6.312;2023-01-06T14:44:35;99656.94;;;10.95;73.48
64343;BME280;50675;53.530;-6.312;2023-01-06T14:47:44;99638.56;;;10.97;73.55
64343;BME280;50675;53.530;-6.312;2023-01-06T14:50:19;99622.16;;;10.78;73.41
64343;BME280;50675;53.530;-6.312;2023-01-06T14:52:55;99623.22;;;10.82;73.43
64343;BME280;50675;53.530;-6.312;2023-01-06T14:55:25;99627.75;;;10.97;73.85
64343;BME280;50675;53.530;-6.312;2023-01-06T14:57:52;99601.03;;;10.90;73.49
64343;BME280;50675;53.530;-6.312;2023-01-06T15:00:20;99601.59;;;10.82;73.34
64343;BME280;50675;53.530;-6.312;2023-01-06T15:03:03;99607.00;;;10.82;73.42
64343;BME280;50675;53.530;-6.312;2023-01-06T15:05:35;99604.81;;;10.84;73.50
64343;BME280;50675;53.530;-6.312;2023-01-06T15:10:43;99617.00;;;10.77;73.67
64343;BME280;50675;53.530;-6.312;2023-01-06T15:23:15;99589.44;;;10.85;73.44
64343;BME280;50675;53.530;-6.312;2023-01-06T15:40:38;99568.88;;;10.89;73.49
64343;BME280;50675;53.530;-6.312;2023-01-06T15:56:44;99539.97;;;10.89;73.54
64343;BME280;50675;53.530;-6.312;2023-01-06T16:03:24;99502.97;;;10.85;73.53
64343;BME280;50675;53.530;-6.312;2023-01-06T16:06:23;99513.28;;;10.83;73.33
64343;BME280;50675;53.530;-6.312;2023-01-06T16:09:25;99502.44;;;10.88;73.43
64343;BME280;50675;53.530;-6.312;2023-01-06T16:14:51;99491.38;;;10.84;73.49
64343;BME280;50675;53.530;-6.312;2023-01-06T16:17:30;99470.06;;;10.78;73.56
64343;BME280;50675;53.530;-6.312;2023-01-06T16:20:01;99485.16;;;10.84;73.51
64343;BME280;50675;53.530;-6.312;2023-01-06T16:22:32;99477.88;;;10.79;73.58
64343;BME280;50675;53.530;-6.312;2023-01-06T16:25:07;99463.63;;;10.74;73.50
64343;BME280;50675;53.530;-6.312;2023-01-06T16:27:47;99460.94;;;10.69;73.63
64343;BME280;50675;53.530;-6.312;2023-01-06T16:30:24;99463.69;;;10.59;73.57
64343;BME280;50675;53.530;-6.312;2023-01-06T16:32:52;99457.66;;;10.77;73.56
64343;BME280;50675;53.530;-6.312;2023-01-06T16:35:24;99460.88;;;10.79;73.57
64343;BME280;50675;53.530;-6.312;2023-01-06T16:37:51;99435.00;;;10.73;73.26
64343;BME280;50675;53.530;-6.312;2023-01-06T16:40:23;99429.91;;;10.61;73.54
64343;BME280;50675;53.530;-6.312;2023-01-06T16:43:01;99425.03;;;10.63;73.57
64343;BME280;50675;53.530;-6.312;2023-01-06T16:45:34;99427.69;;;10.73;73.72
64343;BME280;50675;53.530;-6.312;2023-01-06T16:48:05;99411.75;;;10.72;73.63
64343;BME280;50675;53.530;-6.312;2023-01-06T16:53:12;99415.28;;;10.67;73.52
64343;BME280;50675;53.530;-6.312;2023-01-06T16:55:40;99409.66;;;10.64;73.70
64343;BME280;50675;53.530;-6.312;2023-01-06T16:58:18;99404.22;;;10.69;73.60
64343;BME280;50675;53.530;-6.312;2023-01-06T17:00:46;99387.22;;;10.68;73.64
64343;BME280;50675;53.530;-6.312;2023-01-06T17:03:23;99383.75;;;10.58;73.54
64343;BME280;50675;53.530;-6.312;2023-01-06T17:05:50;99371.84;;;10.64;73.92
64343;BME280;50675;53.530;-6.312;2023-01-06T17:08:26;99366.97;;;10.66;73.57
64343;BME280;50675;53.530;-6.312;2023-01-06T17:10:53;99363.81;;;10.53;73.33
64343;BME280;50675;53.530;-6.312;2023-01-06T17:13:18;99356.22;;;10.56;73.52
64343;BME280;50675;53.530;-6.312;2023-01-06T17:16:05;99345.53;;;10.40;73.81
64343;BME280;50675;53.530;-6.312;2023-01-06T17:18:53;99344.91;;;10.53;73.54
64343;BME280;50675;53.530;-6.312;2023-01-06T17:21:33;99334.19;;;10.38;73.70
64343;BME280;50675;53.530;-6.312;2023-01-06T17:24:20;99330.06;;;10.51;73.57
64343;BME280;50675;53.530;-6.312;2023-01-06T17:27:01;99332.53;;;10.42;73.75
64343;BME280;50675;53.530;-6.312;2023-01-06T17:29:37;99332.28;;;10.44;73.58
64343;BME280;50675;53.530;-6.312;2023-01-06T17:32:09;99327.13;;;10.47;73.69
64343;BME280;50675;53.530;-6.312;2023-01-06T17:35:23;99322.66;;;10.67;73.69
64343;BME280;50675;53.530;-6.312;2023-01-06T17:42:03;99293.63;;;10.48;73.79
64343;BME280;50675;53.530;-6.312;2023-01-06T17:44:44;99304.94;;;10.50;73.88
64343;BME280;50675;53.530;-6.312;2023-01-06T17:49:39;99289.53;;;10.56;73.73
64343;BME280;50675;53.530;-6.312;2023-01-06T17:52:12;99265.00;;;10.52;73.82
64343;BME280;50675;53.530;-6.312;2023-01-06T17:54:39;99263.06;;;10.58;73.79
64343;BME280;50675;53.530;-6.312;2023-01-06T17:57:24;99280.94;;;10.49;73.80
64343;BME280;50675;53.530;-6.312;2023-01-06T17:59:53;99259.88;;;10.51;73.81
64343;BME280;50675;53.530;-6.312;2023-01-06T18:02:36;99246.63;;;10.55;73.90
64343;BME280;50675;53.530;-6.312;2023-01-06T18:08:13;99247.00;;;10.38;73.85
64343;BME280;50675;53.530;-6.312;2023-01-06T18:10:44;99231.22;;;10.55;73.73
64343;BME280;50675;53.530;-6.312;2023-01-06T18:13:31;99234.72;;;10.56;73.86
64343;BME280;50675;53.530;-6.312;2023-01-06T18:15:59;99233.63;;;10.57;73.78
64343;BME280;50675;53.530;-6.312;2023-01-06T18:23:46;99217.13;;;10.63;73.80
64343;BME280;50675;53.530;-6.312;2023-01-06T18:28:52;99209.91;;;10.53;74.02
64343;BME280;50675;53.530;-6.312;2023-01-06T18:31:21;99216.28;;;10.68;73.99
64343;BME280;50675;53.530;-6.312;2023-01-06T18:33:48;99209.91;;;10.53;74.11
64343;BME280;50675;53.530;-6.312;2023-01-06T18:36:15;99214.13;;;10.65;74.13
64343;BME280;50675;53.530;-6.312;2023-01-06T18:38:40;99199.44;;;10.76;73.95
64343;BME280;50675;53.530;-6.312;2023-01-06T18:41:13;99181.44;;;10.66;74.20
64343;BME280;50675;53.530;-6.312;2023-01-06T18:43:41;99171.72;;;10.36;74.16
64343;BME280;50675;53.530;-6.312;2023-01-06T18:46:16;99160.81;;;10.46;74.08
64343;BME280;50675;53.530;-6.312;2023-01-06T18:48:45;99149.56;;;10.39;73.83
64343;BME280;50675;53.530;-6.312;2023-01-06T18:51:19;99146.56;;;10.41;74.15
64343;BME280;50675;53.530;-6.312;2023-01-06T18:53:46;99157.81;;;10.53;74.23
64343;BME280;50675;53.530;-6.312;2023-01-06T18:56:18;99138.72;;;10.44;74.16
64343;BME280;50675;53.530;-6.312;2023-01-06T18:58:47;99132.03;;;10.37;74.44
64343;BME280;50675;53.530;-6.312;2023-01-06T19:01:35;99132.84;;;10.37;74.41
64343;BME280;50675;53.530;-6.312;2023-01-06T19:06:42;99136.94;;;10.64;74.64
64343;BME280;50675;53.530;-6.312;2023-01-06T20:32:50;98979.03;;;10.98;75.03
64343;BME280;50675;53.530;-6.312;2023-01-06T21:10:20;98945.88;;;11.30;75.45
64343;BME280;50675;53.530;-6.312;2023-01-06T23:38:07;98747.75;;;11.44;75.28
